Pagrindinis puslapis
METAR-TAF:

METAR-TAF

Oro uostai :

Umeo, Švedija

platuma: 63-48N, ilguma: 020-17E, Aukštis: 7 m

Dabartinis oras

Ataskaita buvo paskelbta 35 minutes, ne 11:20 UTC
Vėjas 7 kt iš Šiaurės/Šiaurės Vakarų
Temperatūra -13°C
Drėgmė 85%
Slėgis 996 hPa
Matomumas 10 km arba daugiau
nėra debesų žemiau 1500 m ir nėra kamuolinių lietaus debesų

METAR: ESNU 021120Z 33007KT CAVOK M13/M15 Q0996

Laikas: 12:55 (11:55 UTC)

Prognozė

Ataskaita buvo paskelbta 25 minutes, ne 11:30 UTC
Prognozė galioja nuo 02 metu 12 UTC su 02 metu 21 UTC
Vėjas 6 kt iš Šiaurės Vakarų
Matomumas 10 km arba daugiau
Išsisklaidę debesys ne aukštis 1500 ft
Tikimybė 40%
nuo 02 metu 19 UTC su 02 metu 21 UTC
Matomumas: 4000 m
Su prošvaistėmis ne aukštis 600 ft
sniegas

TAF: ESNU 021130Z 0212/0221 32006KT 9999 SCT015 PROB40 0219/0221 4000 -SN BKN006

Orai ataskaitas ir orų prognozės (METAR, TAF).

turimą stotys yra geltonos ir raudonos taškus žemėlapyje.

Perkelti pele per norėdami pamatyti stoties vardą.

Tada spustelėkite, norėdami matyti oro stebėjimo ir prognozės.

Norėdami pakeisti žemėlapį: spustelėkite ant žalios mygtukų su juodo kryžiaus žemyn,; žalią mygtuką su brūkšneliu, jei norite nutolinti; arba žalių rodyklių gretimoms žemėlapius.


METAR-TAF: